Time;durP1;ratioP1;P1;durP2;ratioP2;P2;SDS_P1;SDS_P2;PMS_P1;PMS_P2;Temp;Humidity;BMP_temperature;BMP_pressure;BME280_temperature;BME280_humidity;BME280_pressure;Samples;Min_cycle;Max_cycle;Signal;HPM_P1;HPM_P2
2022/08/20 00:00:38;;;;;;;7.40;3.30;;;;;20.64;97086.20;;;;110578;1250;41632;-65
2022/08/20 00:03:26;;;;;;;7.90;3.10;;;;;20.60;97080.80;;;;110595;1251;42389;-66
2022/08/20 00:06:17;;;;;;;7.00;3.20;;;;;20.60;97078.00;;;;110827;1251;41628;-66
2022/08/20 00:08:46;;;;;;;8.60;3.80;;;;;20.60;97075.60;;;;110776;1250;41154;-67
2022/08/20 00:11:20;;;;;;;7.40;3.20;;;;;20.60;97073.60;;;;110781;1249;42386;-66
2022/08/20 00:13:53;;;;;;;10.40;3.80;;;;;20.60;97071.80;;;;110778;1251;41420;-66
2022/08/20 00:16:24;;;;;;;11.20;4.20;;;;;20.60;97072.20;;;;110820;1251;41193;-67
2022/08/20 00:18:54;;;;;;;7.80;3.70;;;;;20.50;97074.40;;;;110777;1251;42407;-66
2022/08/20 00:21:24;;;;;;;9.20;3.90;;;;;20.50;97072.00;;;;110671;1249;41647;-66
2022/08/20 00:23:53;;;;;;;;;;;;;20.50;97074.00;;;;110586;1251;41596;-66
2022/08/20 00:26:23;;;;;;;8.50;4.20;;;;;20.40;97078.60;;;;110681;1252;41604;-65
2022/08/20 00:28:53;;;;;;;10.40;4.60;;;;;20.30;97076.40;;;;110676;1249;42555;-65
2022/08/20 00:31:24;;;;;;;12.00;4.60;;;;;20.30;97072.60;;;;110527;1251;42117;-65
2022/08/20 00:33:54;;;;;;;10.90;4.80;;;;;20.20;97066.00;;;;110684;1250;41159;-65
2022/08/20 00:36:24;;;;;;;10.40;4.40;;;;;20.00;97065.60;;;;110618;1251;41739;-65
2022/08/20 00:39:01;;;;;;;9.00;4.60;;;;;20.02;97062.40;;;;110665;1249;42264;-65
2022/08/20 00:41:31;;;;;;;8.20;3.60;;;;;20.00;97059.60;;;;110583;1251;41161;-66
2022/08/20 00:44:17;;;;;;;8.50;4.00;;;;;20.00;97057.80;;;;110644;1251;41190;-65
2022/08/20 00:46:49;;;;;;;7.60;3.20;;;;;20.06;97054.20;;;;110671;1251;41271;-66
2022/08/20 00:49:27;;;;;;;7.70;3.10;;;;;20.04;97052.20;;;;110767;1250;41513;-65
2022/08/20 00:52:11;;;;;;;10.20;3.40;;;;;20.00;97046.80;;;;110773;1250;41598;-65
2022/08/20 00:54:46;;;;;;;7.90;3.50;;;;;20.00;97042.40;;;;110796;1251;41263;-64
2022/08/20 00:57:28;;;;;;;7.70;3.00;;;;;20.00;97045.20;;;;110615;1250;41134;-66
2022/08/20 01:00:29;;;;;;;7.70;3.30;;;;;20.00;97039.20;;;;110636;1251;41133;-65
2022/08/20 01:02:59;;;;;;;6.20;2.80;;;;;20.00;97038.20;;;;110644;1251;41505;-65
2022/08/20 01:05:28;;;;;;;7.30;3.50;;;;;20.00;97037.80;;;;110667;1250;41236;-65
2022/08/20 01:07:58;;;;;;;10.70;5.20;;;;;20.00;97035.80;;;;110580;1252;41240;-66
2022/08/20 01:10:34;;;;;;;10.20;4.50;;;;;20.00;97035.00;;;;110918;1249;41147;-65
2022/08/20 01:13:08;;;;;;;7.90;3.40;;;;;20.00;97032.40;;;;110660;1249;41172;-66
2022/08/20 01:15:42;;;;;;;8.20;3.20;;;;;20.00;97033.60;;;;110725;1249;41141;-66
2022/08/20 01:18:15;;;;;;;6.50;2.80;;;;;19.96;97034.00;;;;110737;1249;41262;-65
2022/08/20 01:20:53;;;;;;;6.70;2.90;;;;;19.90;97033.20;;;;110638;1250;41163;-66
2022/08/20 01:23:46;;;;;;;7.30;3.20;;;;;19.90;97033.40;;;;110658;1250;41146;-66
2022/08/20 01:26:21;;;;;;;7.30;3.10;;;;;19.90;97033.00;;;;110717;1252;41140;-66
2022/08/20 01:28:55;;;;;;;9.70;4.00;;;;;19.86;97025.20;;;;110631;1251;41250;-66
2022/08/20 01:31:28;;;;;;;10.20;4.50;;;;;19.80;97031.20;;;;110574;1251;41591;-66
2022/08/20 01:34:01;;;;;;;10.00;4.60;;;;;19.66;97031.00;;;;110688;1250;41642;-65
2022/08/20 01:36:42;;;;;;;8.50;4.10;;;;;19.54;97028.20;;;;110668;1249;41233;-65
2022/08/20 01:39:19;;;;;;;8.60;3.50;;;;;19.60;97027.60;;;;110573;1251;41201;-64
2022/08/20 01:41:59;;;;;;;8.60;3.90;;;;;19.56;97026.80;;;;110905;1250;41496;-67
2022/08/20 01:44:32;;;;;;;9.80;4.50;;;;;19.50;97028.20;;;;110848;1249;41336;-66
2022/08/20 01:47:21;;;;;;;9.40;4.20;;;;;19.50;97023.80;;;;110774;1250;41184;-65
2022/08/20 01:49:55;;;;;;;9.10;4.20;;;;;19.50;97023.20;;;;110723;1251;41735;-65
2022/08/20 01:52:56;;;;;;;12.20;4.90;;;;;19.40;97022.00;;;;110547;1252;41268;-65
2022/08/20 01:55:27;;;;;;;10.10;4.80;;;;;19.40;97013.60;;;;110923;1250;41878;-65
2022/08/20 01:57:57;;;;;;;10.70;4.50;;;;;19.40;97009.20;;;;110475;1252;41134;-65
2022/08/20 02:00:31;;;;;;;8.80;4.40;;;;;19.44;97008.80;;;;110618;1251;41507;-65
2022/08/20 02:03:02;;;;;;;10.20;4.60;;;;;19.40;97004.40;;;;110918;1250;41943;-65
2022/08/20 02:05:34;;;;;;;16.90;4.40;;;;;19.40;97006.20;;;;110571;1252;41816;-65
2022/08/20 02:08:04;;;;;;;8.90;4.40;;;;;19.30;97007.20;;;;110748;1251;42414;-65
2022/08/20 02:10:36;;;;;;;10.50;4.20;;;;;19.20;97008.60;;;;110817;1249;42339;-66
2022/08/20 02:13:08;;;;;;;11.10;3.70;;;;;19.20;97012.60;;;;110798;1251;41251;-65
2022/08/20 02:15:39;;;;;;;10.20;4.20;;;;;19.12;97015.20;;;;110761;1249;41140;-65
2022/08/20 02:18:14;;;;;;;7.40;3.30;;;;;19.10;97018.40;;;;110700;1253;41613;-65
2022/08/20 02:20:44;;;;;;;10.50;3.80;;;;;19.10;97017.20;;;;110574;1251;41826;-65
2022/08/20 02:23:15;;;;;;;7.40;3.60;;;;;19.10;97013.60;;;;110887;1250;41666;-65
2022/08/20 02:25:46;;;;;;;9.50;4.50;;;;;19.10;97012.40;;;;110644;1249;41157;-65
2022/08/20 02:28:19;;;;;;;8.90;3.80;;;;;19.10;97012.60;;;;110806;1250;41129;-65
2022/08/20 02:30:51;;;;;;;9.50;4.10;;;;;19.10;97013.80;;;;110770;1249;42384;-65
2022/08/20 02:33:22;;;;;;;9.60;4.10;;;;;19.10;97011.00;;;;110680;1251;41137;-65
2022/08/20 02:35:52;;;;;;;;;;;;;19.10;97004.40;;;;110544;1249;41164;-65
2022/08/20 02:38:22;;;;;;;9.60;4.00;;;;;19.10;97003.00;;;;110726;1252;41726;-65
2022/08/20 02:40:52;;;;;;;8.70;3.50;;;;;19.10;96999.00;;;;110707;1251;41206;-64
2022/08/20 02:43:21;;;;;;;7.50;3.20;;;;;19.10;97001.80;;;;110692;1251;41469;-64
2022/08/20 02:45:54;;;;;;;12.20;3.70;;;;;19.10;96994.00;;;;110671;1251;41157;-65
2022/08/20 02:48:25;;;;;;;8.20;3.50;;;;;19.10;96991.80;;;;110702;1249;41163;-64
2022/08/20 02:51:02;;;;;;;8.60;4.00;;;;;19.10;96991.40;;;;110791;1249;41508;-64
2022/08/20 02:53:35;;;;;;;8.90;3.60;;;;;19.10;96986.80;;;;110619;1249;41154;-64
2022/08/20 02:56:06;;;;;;;10.20;4.60;;;;;19.10;96987.40;;;;110693;1250;42137;-65
2022/08/20 02:58:39;;;;;;;10.60;5.00;;;;;19.00;96985.80;;;;110608;1251;41161;-65
2022/08/20 03:01:13;;;;;;;10.70;5.20;;;;;19.00;96985.60;;;;110704;1249;42133;-64
2022/08/20 03:03:43;;;;;;;9.90;5.10;;;;;18.98;96985.60;;;;110799;1250;41161;-65
2022/08/20 03:06:15;;;;;;;9.30;4.80;;;;;19.00;96987.00;;;;110817;1249;41475;-64
2022/08/20 03:08:44;;;;;;;10.00;5.10;;;;;19.00;96995.00;;;;110616;1251;41275;-64
2022/08/20 03:11:15;;;;;;;10.90;5.30;;;;;18.90;96990.60;;;;110739;1251;41691;-65
2022/08/20 03:13:46;;;;;;;10.30;4.80;;;;;18.76;96996.60;;;;110611;1249;41834;-64
2022/08/20 03:16:16;;;;;;;9.50;4.40;;;;;18.80;96997.40;;;;110687;1249;42204;-65
2022/08/20 03:18:46;;;;;;;7.00;3.40;;;;;18.78;96996.40;;;;110824;1249;41381;-64
2022/08/20 03:21:20;;;;;;;7.70;3.70;;;;;18.78;96998.40;;;;110852;1250;41267;-65
2022/08/20 03:23:50;;;;;;;8.10;3.80;;;;;18.76;97000.00;;;;110620;1249;41179;-65
2022/08/20 03:26:21;;;;;;;9.80;3.80;;;;;18.76;97003.80;;;;111058;1248;41475;-64
2022/08/20 03:28:51;;;;;;;10.00;4.40;;;;;18.76;97003.00;;;;110893;1249;41136;-64
2022/08/20 03:31:21;;;;;;;8.10;3.80;;;;;18.76;97006.20;;;;110763;1250;41278;-64
2022/08/20 03:33:51;;;;;;;11.70;5.70;;;;;18.76;97004.20;;;;110717;1250;41160;-64
2022/08/20 03:36:24;;;;;;;14.80;5.40;;;;;18.80;97009.60;;;;110820;1250;41213;-64
2022/08/20 03:38:59;;;;;;;11.70;5.50;;;;;18.70;97010.20;;;;110928;1250;41269;-64
2022/08/20 03:41:31;;;;;;;10.20;4.20;;;;;18.60;97006.80;;;;111026;1249;41255;-64
2022/08/20 03:44:01;;;;;;;8.60;3.70;;;;;18.60;97007.40;;;;110920;1249;41498;-65
2022/08/20 03:46:31;;;;;;;7.60;3.50;;;;;18.60;97009.20;;;;110677;1249;41153;-64
2022/08/20 03:49:00;;;;;;;7.30;3.50;;;;;18.60;97012.00;;;;110855;1249;41270;-64
2022/08/20 03:51:31;;;;;;;8.00;3.70;;;;;18.60;97009.60;;;;110781;1249;41609;-63
2022/08/20 03:54:02;;;;;;;8.00;3.90;;;;;18.66;97008.80;;;;110724;1249;42869;-63
2022/08/20 03:56:31;;;;;;;8.40;4.10;;;;;18.70;97007.00;;;;110729;1250;41265;-66
2022/08/20 03:59:00;;;;;;;9.70;4.70;;;;;18.70;97006.40;;;;110990;1249;42790;-66
2022/08/20 04:01:30;;;;;;;9.20;4.20;;;;;18.78;97007.20;;;;111095;1249;41159;-65
2022/08/20 04:04:13;;;;;;;9.50;3.90;;;;;18.80;97006.60;;;;111085;1249;40783;-64
2022/08/20 04:06:46;;;;;;;8.70;4.00;;;;;18.80;97004.40;;;;110798;1250;42174;-65
2022/08/20 04:09:16;;;;;;;9.70;4.30;;;;;18.80;97000.00;;;;110945;1249;41136;-65
2022/08/20 04:11:46;;;;;;;9.40;4.40;;;;;18.80;96994.80;;;;110613;1252;41169;-64
2022/08/20 04:14:16;;;;;;;10.40;5.20;;;;;18.86;96905.40;;;;110766;1249;42567;-65
2022/08/20 04:16:48;;;;;;;10.40;5.20;;;;;19.20;96862.00;;;;110970;1249;41254;-63
2022/08/20 04:19:17;;;;;;;9.00;4.50;;;;;19.54;96864.00;;;;110924;1249;42576;-65
2022/08/20 04:21:47;;;;;;;10.90;4.90;;;;;19.94;96855.00;;;;110980;1248;41628;-64
2022/08/20 04:24:17;;;;;;;11.10;4.80;;;;;20.30;96854.80;;;;110809;1249;41479;-64
2022/08/20 04:26:53;;;;;;;10.60;5.40;;;;;20.82;96847.00;;;;110832;1250;41197;-65
2022/08/20 04:29:24;;;;;;;9.70;5.00;;;;;21.14;96849.60;;;;110881;1250;41734;-65
2022/08/20 04:31:54;;;;;;;11.20;5.00;;;;;21.58;96895.20;;;;110651;1251;41266;-65
2022/08/20 04:34:27;;;;;;;9.90;4.00;;;;;22.20;96949.00;;;;110649;1250;41263;-65
2022/08/20 04:36:56;;;;;;;8.50;3.80;;;;;22.92;96964.40;;;;110938;1250;42223;-64
2022/08/20 04:39:25;;;;;;;10.50;4.10;;;;;23.62;96957.80;;;;110889;1249;41140;-64
2022/08/20 04:41:55;;;;;;;9.30;4.00;;;;;24.30;96953.40;;;;110970;1250;41140;-65
2022/08/20 04:44:24;;;;;;;9.80;4.70;;;;;24.70;96954.80;;;;110901;1249;41289;-64
2022/08/20 04:46:53;;;;;;;9.80;4.40;;;;;24.90;96957.00;;;;110914;1249;41727;-64
2022/08/20 04:49:23;;;;;;;9.40;4.50;;;;;25.00;96953.80;;;;110935;1249;41149;-64
2022/08/20 04:51:53;;;;;;;10.70;3.80;;;;;25.30;96955.00;;;;110696;1249;41153;-63
2022/08/20 04:54:22;;;;;;;10.40;4.30;;;;;25.70;96961.20;;;;109736;1249;1348642;-65
2022/08/20 04:56:52;;;;;;;8.80;3.60;;;;;25.90;96965.60;;;;110752;1249;41187;-64
2022/08/20 04:59:21;;;;;;;8.90;3.40;;;;;26.50;96963.40;;;;110940;1248;41130;-65
2022/08/20 05:01:50;;;;;;;10.70;3.90;;;;;27.10;96962.20;;;;110739;1248;41157;-65
2022/08/20 05:04:19;;;;;;;7.10;3.20;;;;;27.70;96962.80;;;;110722;1250;41195;-65
2022/08/20 05:06:48;;;;;;;7.30;3.00;;;;;28.20;96954.40;;;;110748;1249;41630;-65
2022/08/20 05:09:17;;;;;;;8.50;3.90;;;;;28.70;96947.40;;;;110792;1250;41541;-65
2022/08/20 05:11:46;;;;;;;11.80;4.90;;;;;29.14;96944.40;;;;110946;1249;41812;-65
2022/08/20 05:14:15;;;;;;;10.70;4.00;;;;;28.78;96939.60;;;;110876;1249;41141;-64
2022/08/20 05:16:43;;;;;;;10.00;4.30;;;;;28.94;96942.80;;;;110846;1249;42313;-65
2022/08/20 05:19:12;;;;;;;7.00;3.60;;;;;28.90;96938.60;;;;110639;1249;41917;-65
2022/08/20 05:21:41;;;;;;;8.90;4.20;;;;;29.40;96935.20;;;;111022;1249;41155;-65
2022/08/20 05:24:10;;;;;;;8.60;3.90;;;;;29.80;96929.20;;;;110873;1247;41763;-65
2022/08/20 05:26:39;;;;;;;8.60;4.00;;;;;30.30;96928.60;;;;110948;1249;41143;-65
2022/08/20 05:29:08;;;;;;;13.60;4.80;;;;;30.82;96925.20;;;;110950;1249;41143;-65
2022/08/20 05:31:38;;;;;;;11.60;4.00;;;;;31.10;96927.80;;;;110841;1248;42059;-65
2022/08/20 05:34:09;;;;;;;9.70;4.20;;;;;31.20;96932.00;;;;110920;1250;41481;-65
2022/08/20 05:36:48;;;;;;;9.20;3.80;;;;;31.60;96932.40;;;;110948;1249;41633;-65
2022/08/20 05:39:21;;;;;;;9.10;3.60;;;;;31.80;96925.40;;;;110863;1249;41273;-65
2022/08/20 05:41:50;;;;;;;8.90;4.20;;;;;31.90;96922.00;;;;110840;1250;41255;-64
2022/08/20 05:44:19;;;;;;;9.20;4.10;;;;;31.84;96922.20;;;;110875;1249;41308;-64
2022/08/20 05:46:48;;;;;;;9.30;3.50;;;;;32.04;96920.80;;;;110789;1251;41457;-65
2022/08/20 05:49:20;;;;;;;9.20;3.30;;;;;32.40;96925.60;;;;111001;1249;41141;-65
2022/08/20 05:51:50;;;;;;;8.30;3.30;;;;;32.50;96926.60;;;;110942;1249;41231;-65
2022/08/20 05:54:18;;;;;;;8.60;3.50;;;;;32.70;96922.80;;;;110911;1250;41929;-65
2022/08/20 05:56:47;;;;;;;9.30;3.60;;;;;32.70;96922.60;;;;110759;1249;41135;-65
2022/08/20 05:59:17;;;;;;;6.80;2.90;;;;;32.80;96924.20;;;;110789;1249;41266;-66
2022/08/20 06:01:51;;;;;;;6.40;2.70;;;;;33.20;96923.20;;;;110779;1250;42317;-66
2022/08/20 06:04:28;;;;;;;7.70;2.80;;;;;33.70;96919.00;;;;110744;1249;41259;-65
2022/08/20 06:07:02;;;;;;;6.00;2.70;;;;;34.10;96921.80;;;;110735;1249;41157;-66
2022/08/20 06:09:32;;;;;;;13.30;3.10;;;;;34.50;96925.20;;;;110816;1249;41160;-66
2022/08/20 06:12:04;;;;;;;8.50;3.10;;;;;34.82;96921.00;;;;110792;1249;41249;-66
2022/08/20 06:14:33;;;;;;;6.80;3.00;;;;;35.10;96920.40;;;;110828;1250;41295;-66
2022/08/20 06:17:08;;;;;;;8.50;3.30;;;;;35.22;96920.80;;;;110885;1249;41158;-66
2022/08/20 06:19:37;;;;;;;11.70;3.50;;;;;34.90;96924.80;;;;110772;1249;41153;-66
2022/08/20 06:22:06;;;;;;;7.90;3.20;;;;;34.70;96924.60;;;;110720;1249;41328;-66
2022/08/20 06:24:45;;;;;;;7.20;3.20;;;;;34.76;96927.40;;;;110785;1250;41629;-66
2022/08/20 06:27:15;;;;;;;8.40;3.50;;;;;34.08;96930.20;;;;110791;1249;41542;-66
2022/08/20 06:29:45;;;;;;;7.40;3.00;;;;;33.94;96927.00;;;;110873;1250;41269;-66
2022/08/20 06:32:14;;;;;;;13.40;3.40;;;;;34.02;96927.40;;;;110852;1249;41754;-66
2022/08/20 06:34:43;;;;;;;8.50;3.00;;;;;33.58;96925.20;;;;110735;1250;41197;-66
2022/08/20 06:37:24;;;;;;;7.60;2.70;;;;;33.70;96924.80;;;;110747;1249;41149;-66
2022/08/20 06:40:09;;;;;;;9.20;3.00;;;;;33.94;96930.00;;;;110754;1249;41133;-66
2022/08/20 06:42:42;;;;;;;7.10;2.60;;;;;33.96;96930.80;;;;110818;1251;41591;-66
2022/08/20 06:45:19;;;;;;;6.20;2.50;;;;;34.44;96933.20;;;;110638;1250;41169;-67
2022/08/20 06:47:49;;;;;;;7.90;2.90;;;;;35.06;96934.40;;;;111002;1250;41155;-65
2022/08/20 06:50:22;;;;;;;7.00;2.60;;;;;35.06;96933.60;;;;110873;1249;41157;-70
2022/08/20 06:52:51;;;;;;;6.30;2.50;;;;;35.00;96933.80;;;;110846;1249;41277;-68
2022/08/20 06:55:20;;;;;;;9.90;3.10;;;;;35.26;96931.40;;;;110721;1250;41596;-65
2022/08/20 06:58:00;;;;;;;6.60;2.80;;;;;35.80;96933.60;;;;110602;1250;41139;-67
2022/08/20 07:00:31;;;;;;;8.20;2.50;;;;;35.84;96935.20;;;;110562;1251;41147;-66
2022/08/20 07:03:00;;;;;;;6.10;2.30;;;;;35.96;96933.60;;;;110896;1249;41161;-67
2022/08/20 07:05:30;;;;;;;;;;;;;36.40;96930.40;;;;110728;1252;42407;-66
2022/08/20 07:07:59;;;;;;;7.80;3.20;;;;;36.20;96925.60;;;;111026;1249;41160;-66
2022/08/20 07:10:29;;;;;;;10.60;3.10;;;;;36.04;96930.20;;;;110922;1249;41299;-66
2022/08/20 07:12:58;;;;;;;7.70;2.50;;;;;35.96;96932.40;;;;110795;1250;41146;-65
2022/08/20 07:15:29;;;;;;;7.10;2.40;;;;;35.84;96930.60;;;;110672;1249;41976;-66
2022/08/20 07:18:00;;;;;;;6.90;2.70;;;;;36.38;96927.80;;;;110923;1249;41143;-66
2022/08/20 07:20:31;;;;;;;6.10;2.50;;;;;36.76;96931.00;;;;111042;1249;41168;-65
2022/08/20 07:23:00;;;;;;;6.20;2.60;;;;;36.30;96921.40;;;;110821;1248;41703;-66
2022/08/20 07:25:32;;;;;;;8.70;3.00;;;;;36.94;96923.40;;;;110844;1250;41975;-66
2022/08/20 07:28:04;;;;;;;7.50;2.50;;;;;35.64;96916.60;;;;110939;1249;41595;-66
2022/08/20 07:33:28;;;;;;;6.10;2.40;;;;;35.28;96914.80;;;;110794;1250;41860;-67
2022/08/20 07:35:59;;;;;;;8.40;2.50;;;;;36.36;96913.40;;;;110678;1252;41256;-67
2022/08/20 07:38:29;;;;;;;7.20;2.60;;;;;37.06;96909.60;;;;110919;1249;41155;-68
2022/08/20 07:41:01;;;;;;;5.80;2.20;;;;;37.90;96904.80;;;;110798;1249;41149;-67
2022/08/20 07:43:30;;;;;;;6.80;2.60;;;;;38.40;96905.00;;;;110635;1252;41267;-68
2022/08/20 07:46:00;;;;;;;6.60;2.60;;;;;38.70;96902.20;;;;110858;1250;41133;-68
2022/08/20 07:48:29;;;;;;;8.70;2.80;;;;;37.94;96897.00;;;;110684;1251;41259;-68
2022/08/20 07:51:03;;;;;;;7.10;2.60;;;;;37.64;96900.40;;;;110843;1249;41159;-68
2022/08/20 07:53:33;;;;;;;5.90;2.30;;;;;37.38;96904.00;;;;110659;1252;41146;-69
2022/08/20 07:56:07;;;;;;;9.20;2.60;;;;;36.70;96911.20;;;;110666;1249;41224;-69
2022/08/20 07:58:42;;;;;;;8.70;2.60;;;;;35.68;96911.60;;;;110673;1249;42506;-68
2022/08/20 08:01:11;;;;;;;8.30;2.90;;;;;34.96;96912.60;;;;110685;1252;41746;-68
2022/08/20 08:03:40;;;;;;;7.50;2.60;;;;;33.86;96917.60;;;;110580;1250;41290;-68
2022/08/20 08:06:20;;;;;;;5.80;2.30;;;;;33.88;96914.40;;;;110664;1249;41152;-68
2022/08/20 08:09:09;;;;;;;8.90;2.60;;;;;34.70;96906.60;;;;110606;1250;41827;-69
2022/08/20 08:11:39;;;;;;;10.00;2.60;;;;;35.88;96897.80;;;;110676;1250;42378;-69
2022/08/20 08:14:18;;;;;;;6.70;2.70;;;;;36.84;96887.40;;;;110630;1249;41260;-69
2022/08/20 08:16:47;;;;;;;7.70;2.80;;;;;37.32;96883.00;;;;110626;1249;41739;-68
2022/08/20 08:19:16;;;;;;;6.60;2.60;;;;;37.22;96882.00;;;;110675;1250;41728;-68
2022/08/20 08:21:45;;;;;;;;;;;;;37.76;96880.60;;;;110542;1249;41638;-68
2022/08/20 08:24:14;;;;;;;6.80;2.40;;;;;38.80;96880.60;;;;110649;1249;41774;-69
2022/08/20 08:26:51;;;;;;;6.00;2.10;;;;;38.00;96873.60;;;;110600;1249;41152;-69
2022/08/20 08:29:20;;;;;;;8.60;2.70;;;;;38.56;96879.60;;;;110662;1249;41164;-68
2022/08/20 08:31:48;;;;;;;7.50;2.60;;;;;37.66;96879.60;;;;110860;1248;41940;-68
2022/08/20 08:34:17;;;;;;;8.60;2.30;;;;;37.70;96879.00;;;;110604;1249;41310;-68
2022/08/20 08:36:46;;;;;;;12.50;2.90;;;;;37.26;96877.80;;;;110596;1250;41205;-68
2022/08/20 08:39:15;;;;;;;6.50;2.40;;;;;37.72;96878.40;;;;110737;1249;42460;-68
2022/08/20 08:41:48;;;;;;;7.60;2.50;;;;;37.70;96883.80;;;;110800;1249;41898;-69
2022/08/20 08:44:22;;;;;;;11.80;3.00;;;;;38.28;96875.60;;;;110918;1250;41132;-68
2022/08/20 08:46:57;;;;;;;7.80;2.70;;;;;38.28;96875.00;;;;110640;1249;41152;-67
2022/08/20 08:49:33;;;;;;;7.70;2.70;;;;;38.06;96874.40;;;;110630;1249;41184;-68
2022/08/20 08:52:17;;;;;;;9.70;3.00;;;;;38.76;96878.60;;;;110575;1250;41274;-69
2022/08/20 08:54:48;;;;;;;7.40;2.60;;;;;39.10;96871.20;;;;110763;1249;41156;-68
2022/08/20 08:57:18;;;;;;;4.80;2.20;;;;;38.64;96872.20;;;;110753;1249;41139;-69
2022/08/20 08:59:48;;;;;;;;;;;;;39.22;96875.20;;;;110739;1249;41901;-68
2022/08/20 09:02:27;;;;;;;9.60;2.90;;;;;38.66;96880.80;;;;110670;1249;41184;-67
2022/08/20 09:04:58;;;;;;;10.50;3.10;;;;;39.40;96881.80;;;;110818;1249;42245;-68
2022/08/20 09:07:31;;;;;;;7.50;2.60;;;;;39.20;96887.40;;;;110696;1251;42631;-66
2022/08/20 09:10:01;;;;;;;6.70;2.50;;;;;38.30;96887.00;;;;110667;1249;41392;-67
2022/08/20 09:12:29;;;;;;;6.90;2.60;;;;;39.12;96885.20;;;;110674;1249;41149;-66
2022/08/20 09:14:58;;;;;;;6.80;2.80;;;;;39.06;96882.60;;;;110679;1249;41289;-67
2022/08/20 09:17:30;;;;;;;5.70;2.30;;;;;39.14;96878.00;;;;110779;1249;41489;-68
2022/08/20 09:19:59;;;;;;;6.80;2.50;;;;;38.50;96883.60;;;;110800;1250;42609;-68
2022/08/20 09:22:27;;;;;;;7.60;2.20;;;;;37.88;96882.40;;;;110832;1250;41179;-68
2022/08/20 09:24:57;;;;;;;7.40;3.00;;;;;38.64;96879.40;;;;110863;1249;42020;-68
2022/08/20 09:27:30;;;;;;;9.90;2.50;;;;;38.90;96878.40;;;;110698;1249;42179;-67
2022/08/20 09:29:59;;;;;;;6.80;2.50;;;;;39.16;96877.40;;;;110859;1249;41599;-69
2022/08/20 09:32:28;;;;;;;7.50;2.50;;;;;39.46;96877.00;;;;110836;1250;41261;-68
2022/08/20 09:34:58;;;;;;;7.10;2.50;;;;;38.68;96885.80;;;;110721;1249;41148;-68
2022/08/20 09:37:29;;;;;;;11.30;3.00;;;;;39.12;96877.40;;;;110596;1249;41330;-68
2022/08/20 09:40:07;;;;;;;6.70;2.10;;;;;39.06;96874.80;;;;110629;1249;41636;-69
2022/08/20 09:42:37;;;;;;;7.20;2.50;;;;;38.88;96876.00;;;;110792;1250;41463;-68
2022/08/20 09:45:10;;;;;;;6.70;2.50;;;;;38.34;96876.00;;;;110675;1249;41145;-68
2022/08/20 09:47:40;;;;;;;7.50;2.50;;;;;37.76;96880.60;;;;110624;1251;41153;-68
2022/08/20 09:50:11;;;;;;;10.20;3.30;;;;;38.70;96880.20;;;;110701;1252;41629;-68
2022/08/20 09:52:43;;;;;;;7.60;3.00;;;;;39.20;96873.00;;;;110599;1250;41263;-68
2022/08/20 09:55:30;;;;;;;11.90;3.20;;;;;38.94;96874.40;;;;110689;1249;42298;-68
2022/08/20 09:58:05;;;;;;;13.40;2.90;;;;;39.06;96871.00;;;;110780;1250;41360;-68
2022/08/20 10:00:34;;;;;;;7.00;2.10;;;;;39.36;96877.40;;;;110927;1250;42177;-68
2022/08/20 10:03:04;;;;;;;6.30;2.60;;;;;38.24;96877.20;;;;110835;1249;41277;-68
2022/08/20 10:05:32;;;;;;;7.40;2.40;;;;;36.48;96885.00;;;;110650;1252;41158;-69
2022/08/20 10:08:09;;;;;;;7.20;2.20;;;;;37.62;96879.40;;;;110579;1252;42123;-69
2022/08/20 10:10:38;;;;;;;6.30;2.30;;;;;38.24;96873.20;;;;110646;1253;41615;-68
2022/08/20 10:13:07;;;;;;;5.40;2.10;;;;;39.38;96868.00;;;;110557;1253;41155;-67
2022/08/20 10:15:35;;;;;;;9.70;3.00;;;;;40.48;96864.40;;;;110559;1252;41338;-67
2022/08/20 10:18:06;;;;;;;11.20;3.10;;;;;39.16;96863.40;;;;110483;1254;41156;-68
2022/08/20 10:20:35;;;;;;;7.70;2.80;;;;;40.00;96858.60;;;;110549;1252;41646;-67
2022/08/20 10:23:04;;;;;;;7.90;2.50;;;;;38.80;96859.00;;;;110704;1251;41159;-67
2022/08/20 10:25:34;;;;;;;6.50;2.10;;;;;39.36;96859.40;;;;110775;1252;41534;-67
2022/08/20 10:28:03;;;;;;;5.50;2.20;;;;;39.68;96854.40;;;;110619;1251;41158;-67
2022/08/20 10:30:32;;;;;;;7.70;2.50;;;;;40.02;96852.40;;;;110755;1251;41294;-67
2022/08/20 10:33:01;;;;;;;6.30;2.20;;;;;39.02;96850.00;;;;110688;1252;41268;-68
2022/08/20 10:35:30;;;;;;;7.30;2.10;;;;;40.14;96845.80;;;;110817;1251;41261;-68
2022/08/20 10:37:59;;;;;;;5.70;2.50;;;;;40.98;96836.00;;;;110626;1251;41242;-68
2022/08/20 10:40:27;;;;;;;8.00;2.50;;;;;41.08;96835.60;;;;110848;1251;42536;-67
2022/08/20 10:42:56;;;;;;;5.50;2.10;;;;;39.48;96840.60;;;;110766;1250;41172;-68
2022/08/20 10:45:26;;;;;;;6.00;2.20;;;;;39.48;96840.60;;;;110826;1251;41262;-68
2022/08/20 10:47:58;;;;;;;3.90;1.90;;;;;40.08;96839.60;;;;110729;1250;41372;-67
2022/08/20 10:50:27;;;;;;;7.00;2.40;;;;;40.46;96838.40;;;;110607;1251;41164;-67
2022/08/20 10:52:57;;;;;;;5.40;2.20;;;;;40.96;96838.00;;;;110665;1250;41171;-66
2022/08/20 10:55:26;;;;;;;7.80;2.80;;;;;41.20;96833.20;;;;110808;1252;41184;-67
2022/08/20 10:57:56;;;;;;;7.40;2.50;;;;;39.20;96838.40;;;;110741;1252;41181;-68
2022/08/20 11:00:25;;;;;;;5.80;2.40;;;;;39.60;96842.60;;;;110853;1251;41354;-68
2022/08/20 11:02:54;;;;;;;5.50;2.20;;;;;39.10;96836.80;;;;110701;1251;41148;-68
2022/08/20 11:05:22;;;;;;;12.80;2.70;;;;;39.34;96832.00;;;;110637;1248;41277;-67
2022/08/20 11:07:51;;;;;;;6.00;2.30;;;;;39.32;96832.40;;;;110777;1250;41265;-68
2022/08/20 11:10:25;;;;;;;5.40;2.00;;;;;39.50;96833.00;;;;110827;1250;41152;-68
2022/08/20 11:12:54;;;;;;;4.80;1.90;;;;;40.14;96834.20;;;;110854;1250;41625;-68
2022/08/20 11:15:23;;;;;;;7.40;2.10;;;;;40.86;96831.60;;;;110745;1249;42151;-68
2022/08/20 11:17:54;;;;;;;7.00;2.20;;;;;40.46;96826.60;;;;110844;1249;42252;-68
2022/08/20 11:20:26;;;;;;;4.60;2.10;;;;;40.66;96823.40;;;;110859;1249;41435;-68
2022/08/20 11:22:55;;;;;;;5.90;2.10;;;;;39.84;96811.80;;;;110788;1249;42556;-67
2022/08/20 11:25:25;;;;;;;8.80;2.60;;;;;40.40;96810.80;;;;110799;1249;41267;-68
2022/08/20 11:27:55;;;;;;;6.80;2.00;;;;;42.22;96805.40;;;;110860;1249;42723;-68
2022/08/20 11:30:28;;;;;;;5.70;2.00;;;;;41.96;96797.60;;;;110694;1248;41151;-67
2022/08/20 11:32:57;;;;;;;6.80;2.10;;;;;42.14;96791.80;;;;110680;1250;41148;-68
2022/08/20 11:35:28;;;;;;;5.10;1.90;;;;;42.68;96785.60;;;;110751;1249;41249;-68
2022/08/20 11:38:17;;;;;;;5.20;1.80;;;;;43.34;96788.20;;;;110686;1249;41729;-68
2022/08/20 11:40:46;;;;;;;6.60;1.90;;;;;43.72;96777.40;;;;110851;1249;41253;-69
2022/08/20 11:43:15;;;;;;;7.80;2.60;;;;;44.50;96776.80;;;;110827;1250;41192;-68
2022/08/20 11:45:47;;;;;;;6.10;2.00;;;;;42.00;96778.20;;;;110825;1249;41157;-68
2022/08/20 11:48:16;;;;;;;6.20;2.20;;;;;42.68;96777.60;;;;111014;1249;41140;-70
2022/08/20 11:50:46;;;;;;;4.10;1.80;;;;;43.96;96770.20;;;;110922;1249;42779;-67
2022/08/20 11:53:15;;;;;;;5.70;2.00;;;;;45.08;96760.00;;;;110879;1250;41690;-67
2022/08/20 11:55:44;;;;;;;5.20;2.00;;;;;45.54;96752.80;;;;110821;1252;41845;-68
2022/08/20 11:58:12;;;;;;;;;;;;;46.26;96747.60;;;;110668;1251;42397;-67
2022/08/20 12:00:41;;;;;;;4.60;1.70;;;;;46.90;96744.40;;;;110714;1249;41216;-68
2022/08/20 12:03:10;;;;;;;5.60;1.80;;;;;47.48;96746.00;;;;110671;1249;41735;-69
2022/08/20 12:05:42;;;;;;;4.90;1.80;;;;;47.80;96733.40;;;;110712;1249;41834;-69
2022/08/20 12:08:12;;;;;;;5.00;2.00;;;;;47.40;96736.40;;;;110713;1251;41151;-67
2022/08/20 12:10:59;;;;;;;7.70;2.10;;;;;47.50;96739.20;;;;110834;1249;41665;-67
2022/08/20 12:13:30;;;;;;;7.90;2.40;;;;;47.68;96738.60;;;;110794;1250;41175;-69
2022/08/20 12:16:16;;;;;;;5.00;2.10;;;;;45.64;96738.80;;;;110836;1250;41987;-68
2022/08/20 12:18:45;;;;;;;4.40;2.00;;;;;45.44;96737.60;;;;110796;1249;41160;-68
2022/08/20 12:21:15;;;;;;;4.80;1.90;;;;;44.26;96738.60;;;;110941;1249;42265;-68
2022/08/20 12:23:43;;;;;;;4.70;1.60;;;;;44.22;96739.00;;;;110761;1250;41607;-66
2022/08/20 12:26:13;;;;;;;4.00;1.70;;;;;44.32;96740.20;;;;110752;1249;41271;-68
2022/08/20 12:28:42;;;;;;;3.50;1.80;;;;;45.04;96736.20;;;;110714;1249;41143;-67
2022/08/20 12:31:10;;;;;;;4.00;1.60;;;;;45.76;96730.80;;;;110667;1249;41175;-68
2022/08/20 12:33:39;;;;;;;;;;;;;46.46;96727.20;;;;110623;1249;41157;-67